Time;durP1;ratioP1;P1;durP2;ratioP2;P2;SDS_P1;SDS_P2;PMS_P1;PMS_P2;Temp;Humidity;BMP_temperature;BMP_pressure;BME280_temperature;BME280_humidity;BME280_pressure;Samples;Min_cycle;Max_cycle;Signal;HPM_P1;HPM_P2
2023/08/16 00:00:22;;;;;;;3.63;2.47;;;23.90;99.90;;;;;;6242621;23;20465;-68
2023/08/16 00:03:08;;;;;;;3.35;2.45;;;23.90;99.90;;;;;;6241955;23;20047;-69
2023/08/16 00:05:54;;;;;;;3.80;2.38;;;23.90;99.90;;;;;;6242078;23;20062;-68
2023/08/16 00:08:41;;;;;;;5.22;2.92;;;23.90;99.90;;;;;;6242035;23;20454;-69
2023/08/16 00:11:27;;;;;;;4.75;2.95;;;23.80;99.90;;;;;;6239501;23;20507;-68
2023/08/16 00:14:13;;;;;;;4.22;2.47;;;23.80;99.90;;;;;;6241833;23;20016;-68
2023/08/16 00:16:59;;;;;;;2.95;2.10;;;23.80;99.90;;;;;;6242127;23;20151;-69
2023/08/16 00:19:45;;;;;;;3.85;3.03;;;23.80;99.90;;;;;;6242720;23;20017;-68
2023/08/16 00:22:31;;;;;;;3.90;2.47;;;23.70;99.90;;;;;;6242017;23;20020;-69
2023/08/16 00:25:17;;;;;;;5.32;2.72;;;23.70;99.90;;;;;;6247303;23;20040;-69
2023/08/16 00:28:03;;;;;;;4.38;2.00;;;23.80;99.90;;;;;;6241743;23;20016;-69
2023/08/16 00:30:56;;;;;;;3.28;2.55;;;23.80;99.90;;;;;;6241832;23;20011;-69
2023/08/16 00:33:42;;;;;;;3.70;2.40;;;23.80;99.90;;;;;;6242355;23;20016;-69
2023/08/16 00:36:28;;;;;;;4.93;2.55;;;23.80;99.90;;;;;;6241274;23;20013;-69
2023/08/16 00:39:14;;;;;;;6.25;3.00;;;23.80;99.90;;;;;;6242031;23;20016;-69
2023/08/16 00:42:00;;;;;;;4.95;2.90;;;23.80;99.90;;;;;;6241612;23;20014;-69
2023/08/16 00:44:45;;;;;;;4.55;2.47;;;23.70;99.90;;;;;;6241035;23;20319;-69
2023/08/16 00:47:32;;;;;;;3.83;2.60;;;23.70;99.90;;;;;;6237589;23;20004;-69
2023/08/16 00:50:21;;;;;;;4.68;2.40;;;23.70;99.90;;;;;;6240310;23;20023;-70
2023/08/16 00:53:09;;;;;;;3.35;2.40;;;23.70;99.90;;;;;;6242393;23;20024;-69
2023/08/16 00:55:55;;;;;;;4.57;2.70;;;23.70;99.90;;;;;;6239423;23;20020;-69
2023/08/16 00:58:42;;;;;;;3.15;2.30;;;23.70;99.90;;;;;;6240558;23;20015;-69
2023/08/16 01:01:28;;;;;;;6.18;2.42;;;23.70;99.90;;;;;;6219927;23;20005;-69
2023/08/16 01:04:15;;;;;;;3.33;2.67;;;23.70;99.90;;;;;;6241225;23;20044;-67
2023/08/16 01:07:01;;;;;;;2.72;2.22;;;23.70;99.90;;;;;;6238624;23;20360;-68
2023/08/16 01:09:47;;;;;;;3.75;2.33;;;23.70;99.90;;;;;;6242110;23;20091;-68
2023/08/16 01:13:33;;;;;;;4.45;2.67;;;23.70;99.90;;;;;;6241559;23;20008;-68
2023/08/16 01:16:21;;;;;;;3.70;2.58;;;23.70;99.90;;;;;;6199726;23;20091;-68
2023/08/16 01:19:11;;;;;;;3.83;2.35;;;23.60;99.90;;;;;;6236749;23;20004;-68
2023/08/16 01:22:19;;;;;;;5.38;2.83;;;23.60;99.90;;;;;;6241035;23;20032;-68
2023/08/16 01:25:25;;;;;;;3.22;2.33;;;23.50;99.90;;;;;;6238483;23;20093;-68
2023/08/16 01:28:11;;;;;;;;;;;23.60;99.90;;;;;;6240668;23;20012;-68
2023/08/16 01:31:02;;;;;;;4.22;2.78;;;23.60;99.90;;;;;;6242463;23;20383;-68
2023/08/16 01:33:48;;;;;;;4.10;2.80;;;23.50;99.90;;;;;;6239002;23;20008;-69
2023/08/16 01:36:34;;;;;;;7.57;3.17;;;23.50;99.90;;;;;;6240593;23;20047;-68
2023/08/16 01:39:20;;;;;;;5.80;3.10;;;23.40;99.90;;;;;;6240490;23;20012;-68
2023/08/16 01:42:13;;;;;;;5.35;3.35;;;23.40;99.90;;;;;;6239297;23;20026;-68
2023/08/16 01:45:00;;;;;;;7.28;3.38;;;23.50;99.90;;;;;;6239421;23;20424;-68
2023/08/16 01:47:48;;;;;;;3.45;2.63;;;23.50;99.90;;;;;;6241529;23;20400;-68
2023/08/16 01:50:34;;;;;;;4.22;2.90;;;23.50;99.90;;;;;;6240865;23;20008;-68
2023/08/16 01:53:20;;;;;;;5.90;4.13;;;23.50;99.90;;;;;;6239065;23;20016;-68
2023/08/16 01:56:06;;;;;;;4.40;3.30;;;23.40;99.90;;;;;;6241513;23;20008;-68
2023/08/16 01:58:52;;;;;;;4.68;3.20;;;23.40;99.90;;;;;;6241331;23;20008;-68
2023/08/16 02:01:38;;;;;;;5.38;3.53;;;23.40;99.90;;;;;;6241789;23;20016;-69
2023/08/16 02:04:24;;;;;;;5.68;3.88;;;23.40;99.90;;;;;;6240581;23;20016;-67
2023/08/16 02:07:10;;;;;;;6.40;3.88;;;23.40;99.90;;;;;;6240650;23;20018;-68
2023/08/16 02:09:56;;;;;;;5.40;3.75;;;23.40;99.90;;;;;;6239071;23;20015;-68
2023/08/16 02:12:42;;;;;;;5.65;3.42;;;23.30;99.90;;;;;;6239780;23;20018;-69
2023/08/16 02:15:28;;;;;;;6.00;3.58;;;23.30;99.90;;;;;;6240139;23;20437;-69
2023/08/16 02:18:14;;;;;;;7.88;5.05;;;23.30;99.90;;;;;;6240295;23;20388;-69
2023/08/16 02:20:59;;;;;;;5.78;3.83;;;23.30;99.90;;;;;;6240841;23;20091;-74
2023/08/16 02:23:45;;;;;;;7.40;4.05;;;23.30;99.90;;;;;;6240775;23;20139;-74
2023/08/16 02:26:31;;;;;;;6.03;4.00;;;23.30;99.90;;;;;;6241233;23;20004;-74
2023/08/16 02:29:17;;;;;;;6.43;4.90;;;23.30;99.90;;;;;;6240982;23;20016;-72
2023/08/16 02:32:03;;;;;;;9.80;4.38;;;23.20;99.90;;;;;;6241031;23;20012;-74
2023/08/16 02:34:49;;;;;;;5.05;4.22;;;23.20;99.90;;;;;;6237355;23;20075;-74
2023/08/16 02:37:35;;;;;;;7.85;4.57;;;23.20;99.90;;;;;;6241058;23;20094;-73
2023/08/16 02:40:21;;;;;;;5.85;3.83;;;23.30;99.90;;;;;;6239835;23;20012;-74
2023/08/16 02:43:07;;;;;;;5.07;4.00;;;23.20;99.90;;;;;;6239324;23;20016;-74
2023/08/16 02:45:54;;;;;;;6.82;4.70;;;23.20;99.90;;;;;;6239322;23;20142;-74
2023/08/16 02:48:40;;;;;;;6.97;4.57;;;23.20;99.90;;;;;;6240003;23;20094;-75
2023/08/16 02:51:26;;;;;;;9.15;4.55;;;23.20;99.90;;;;;;6240779;23;20091;-74
2023/08/16 02:54:11;;;;;;;6.57;4.65;;;23.20;99.90;;;;;;6240280;23;20005;-74
2023/08/16 02:56:57;;;;;;;7.45;4.18;;;23.20;99.90;;;;;;6240591;23;20014;-71
2023/08/16 02:59:47;;;;;;;7.43;5.13;;;23.20;99.90;;;;;;6240545;23;20012;-73
2023/08/16 03:02:34;;;;;;;6.25;4.85;;;23.20;99.90;;;;;;6238519;23;20492;-72
2023/08/16 03:05:20;;;;;;;7.53;5.10;;;23.20;99.90;;;;;;6243565;23;20024;-72
2023/08/16 03:08:06;;;;;;;7.70;5.40;;;23.20;99.90;;;;;;6247393;23;20070;-72
2023/08/16 03:10:52;;;;;;;9.45;4.93;;;23.20;99.90;;;;;;6241063;23;20054;-73
2023/08/16 03:13:38;;;;;;;7.20;5.03;;;23.20;99.90;;;;;;6241230;23;20030;-73
2023/08/16 03:16:24;;;;;;;7.63;4.82;;;23.20;99.90;;;;;;6243875;23;20338;-73
2023/08/16 03:19:10;;;;;;;7.97;4.80;;;23.20;99.90;;;;;;6242317;23;20008;-73
2023/08/16 03:21:56;;;;;;;6.82;4.50;;;23.20;99.90;;;;;;6241163;23;20012;-73
2023/08/16 03:24:42;;;;;;;6.50;4.60;;;23.20;99.90;;;;;;6241948;23;20525;-73
2023/08/16 03:27:28;;;;;;;7.03;4.47;;;23.20;99.90;;;;;;6241919;23;20012;-73
2023/08/16 03:30:14;;;;;;;9.43;4.90;;;23.10;99.90;;;;;;6243026;23;20314;-73
2023/08/16 03:33:00;;;;;;;7.47;5.05;;;23.10;99.90;;;;;;6241894;23;20066;-73
2023/08/16 03:35:46;;;;;;;6.13;4.70;;;23.10;99.90;;;;;;6239926;23;20016;-73
2023/08/16 03:38:32;;;;;;;7.28;4.45;;;23.10;99.90;;;;;;6242826;23;20008;-73
2023/08/16 03:41:18;;;;;;;6.75;5.10;;;23.10;99.90;;;;;;6242748;23;20012;-73
2023/08/16 03:44:06;;;;;;;9.93;5.35;;;23.10;99.90;;;;;;6242583;23;20374;-74
2023/08/16 03:46:52;;;;;;;8.05;5.63;;;23.00;99.90;;;;;;6241300;23;20042;-74
2023/08/16 03:49:38;;;;;;;9.55;5.75;;;23.10;99.90;;;;;;6241683;23;20019;-73
2023/08/16 03:52:23;;;;;;;8.15;5.55;;;23.10;99.90;;;;;;6242957;23;20087;-74
2023/08/16 03:55:10;;;;;;;7.78;5.57;;;23.10;99.90;;;;;;6241382;23;20039;-73
2023/08/16 03:57:55;;;;;;;7.32;5.40;;;23.10;99.90;;;;;;6242263;23;20016;-74
2023/08/16 04:00:41;;;;;;;9.02;5.65;;;23.10;99.90;;;;;;6242886;23;20091;-74
2023/08/16 04:03:27;;;;;;;8.50;5.65;;;23.10;99.90;;;;;;6240129;23;20274;-74
2023/08/16 04:06:13;;;;;;;7.25;5.05;;;23.00;99.90;;;;;;6242283;23;20012;-73
2023/08/16 04:08:59;;;;;;;6.93;5.05;;;23.00;99.90;;;;;;6240800;23;20334;-73
2023/08/16 04:11:45;;;;;;;10.63;5.93;;;23.00;99.90;;;;;;6242563;23;20350;-74
2023/08/16 04:14:31;;;;;;;11.63;5.78;;;23.00;99.90;;;;;;6241970;23;20023;-74
2023/08/16 04:17:17;;;;;;;6.55;4.63;;;23.00;99.90;;;;;;6220770;23;20764;-73
2023/08/16 04:20:06;;;;;;;9.30;6.07;;;23.00;99.90;;;;;;6239537;23;20019;-73
2023/08/16 04:22:52;;;;;;;7.00;5.15;;;23.00;99.90;;;;;;6240907;23;20039;-74
2023/08/16 04:25:38;;;;;;;6.63;5.10;;;23.00;99.90;;;;;;6242478;23;20012;-74
2023/08/16 04:28:24;;;;;;;7.90;5.68;;;23.00;99.90;;;;;;6240325;23;20067;-74
2023/08/16 04:31:10;;;;;;;8.65;6.10;;;22.90;99.90;;;;;;6242321;23;20008;-74
2023/08/16 04:33:56;;;;;;;9.02;5.90;;;22.90;99.90;;;;;;6241138;23;20016;-75
2023/08/16 04:36:42;;;;;;;7.70;5.90;;;22.90;99.90;;;;;;6242504;23;20086;-74
2023/08/16 04:39:28;;;;;;;8.98;5.85;;;22.90;99.90;;;;;;6241172;23;20008;-75
2023/08/16 04:42:14;;;;;;;9.25;5.38;;;22.90;99.90;;;;;;6242890;23;20401;-74
2023/08/16 04:45:04;;;;;;;11.73;5.28;;;22.80;99.90;;;;;;6238977;23;20023;-75
2023/08/16 04:47:50;;;;;;;8.93;5.65;;;22.80;99.90;;;;;;6242758;23;20507;-75
2023/08/16 04:50:35;;;;;;;8.65;5.90;;;22.90;99.90;;;;;;6242174;23;20362;-74
2023/08/16 04:53:21;;;;;;;11.07;6.10;;;22.80;99.90;;;;;;6242212;23;20012;-74
2023/08/16 04:56:07;;;;;;;9.27;6.22;;;22.80;99.90;;;;;;6219500;23;20320;-75
2023/08/16 04:58:53;;;;;;;8.32;5.53;;;22.80;99.90;;;;;;6242782;23;20276;-74
2023/08/16 05:01:39;;;;;;;9.48;5.90;;;22.80;99.90;;;;;;6220683;23;20426;-74
2023/08/16 05:04:25;;;;;;;7.25;5.55;;;22.80;99.90;;;;;;6240156;23;20362;-74
2023/08/16 05:07:11;;;;;;;13.50;5.68;;;22.90;99.90;;;;;;6240175;23;20012;-75
2023/08/16 05:09:57;;;;;;;9.15;5.20;;;22.90;99.90;;;;;;6240439;23;20004;-74
2023/08/16 05:12:43;;;;;;;8.38;5.15;;;23.00;99.90;;;;;;6240553;23;20016;-74
2023/08/16 05:15:29;;;;;;;6.95;5.03;;;23.00;99.90;;;;;;6241496;23;20334;-74
2023/08/16 05:18:15;;;;;;;8.40;4.90;;;23.00;99.90;;;;;;6240749;23;20031;-74
2023/08/16 05:21:03;;;;;;;7.47;4.50;;;23.10;99.90;;;;;;6240175;23;20141;-73
2023/08/16 05:23:48;;;;;;;9.20;5.72;;;23.20;99.90;;;;;;6239358;23;20070;-75
2023/08/16 05:26:34;;;;;;;7.72;5.35;;;23.30;99.90;;;;;;6241565;23;20011;-75
2023/08/16 05:29:20;;;;;;;7.18;5.25;;;23.30;99.90;;;;;;6241618;23;20095;-74
2023/08/16 05:32:06;;;;;;;6.80;5.00;;;23.40;99.90;;;;;;6241842;23;20008;-73
2023/08/16 05:34:53;;;;;;;6.75;4.63;;;23.40;99.90;;;;;;6239468;23;20095;-73
2023/08/16 05:37:39;;;;;;;7.22;5.30;;;23.50;99.90;;;;;;6241207;23;20008;-74
2023/08/16 05:40:25;;;;;;;7.28;4.57;;;23.60;99.90;;;;;;6241889;23;20012;-73
2023/08/16 05:43:11;;;;;;;9.30;5.43;;;23.70;99.90;;;;;;6240639;23;20446;-73
2023/08/16 05:45:57;;;;;;;8.07;5.72;;;23.70;99.90;;;;;;6241987;23;20008;-73
2023/08/16 05:48:43;;;;;;;11.02;5.80;;;23.70;99.90;;;;;;6246635;23;20383;-72
2023/08/16 05:51:29;;;;;;;7.18;5.63;;;23.80;99.90;;;;;;6243666;23;20150;-73
2023/08/16 05:54:15;;;;;;;9.57;5.78;;;23.80;99.90;;;;;;6240301;23;20438;-75
2023/08/16 05:57:00;;;;;;;7.68;5.18;;;23.80;99.90;;;;;;6242503;23;20054;-73
2023/08/16 05:59:46;;;;;;;7.35;5.57;;;23.90;99.90;;;;;;6219798;23;20062;-73
2023/08/16 06:02:33;;;;;;;9.93;5.30;;;23.90;99.90;;;;;;6241035;23;20070;-73
2023/08/16 06:05:19;;;;;;;6.05;4.75;;;23.90;99.90;;;;;;6240619;23;20027;-73
2023/08/16 06:08:05;;;;;;;8.10;5.53;;;24.00;99.90;;;;;;6241057;23;20058;-73
2023/08/16 06:10:51;;;;;;;7.47;4.70;;;24.00;99.90;;;;;;6240828;23;20353;-73
2023/08/16 06:13:37;;;;;;;6.68;4.88;;;24.00;99.90;;;;;;6241378;23;20016;-73
2023/08/16 06:16:23;;;;;;;10.13;4.90;;;24.00;99.90;;;;;;6241051;23;20058;-73
2023/08/16 06:19:10;;;;;;;12.43;5.68;;;24.00;99.90;;;;;;6240522;23;20046;-72
2023/08/16 06:21:58;;;;;;;10.30;5.05;;;24.00;99.90;;;;;;6239108;23;20016;-73
2023/08/16 06:24:44;;;;;;;8.60;6.05;;;23.90;99.90;;;;;;6239606;23;20619;-74
2023/08/16 06:27:30;;;;;;;6.60;4.82;;;24.00;99.90;;;;;;6240252;23;20069;-73
2023/08/16 06:30:16;;;;;;;7.53;5.32;;;24.00;99.90;;;;;;6240268;23;20024;-73
2023/08/16 06:33:02;;;;;;;6.88;5.60;;;24.00;99.90;;;;;;6240991;23;20350;-73
2023/08/16 06:35:51;;;;;;;10.48;5.10;;;24.10;99.90;;;;;;6239882;23;20012;-74
2023/08/16 06:38:37;;;;;;;8.77;5.70;;;24.10;99.90;;;;;;6239350;23;20019;-74
2023/08/16 06:41:23;;;;;;;8.02;5.70;;;24.10;99.90;;;;;;6237901;23;20012;-74
2023/08/16 06:44:09;;;;;;;9.68;5.32;;;24.20;99.90;;;;;;6238532;23;20024;-74
2023/08/16 06:46:55;;;;;;;6.93;4.35;;;24.20;99.90;;;;;;6244732;23;20008;-73
2023/08/16 06:49:41;;;;;;;9.32;5.28;;;24.30;99.90;;;;;;6243548;23;20708;-71
2023/08/16 06:52:27;;;;;;;7.80;4.93;;;24.30;99.90;;;;;;6242703;23;20023;-69
2023/08/16 06:55:13;;;;;;;10.07;5.63;;;24.50;99.90;;;;;;6241650;23;20009;-69
2023/08/16 06:58:01;;;;;;;6.90;5.35;;;24.50;99.90;;;;;;6243799;23;20012;-68
2023/08/16 07:00:49;;;;;;;7.35;4.60;;;24.60;99.90;;;;;;6222771;23;20590;-69
2023/08/16 07:03:35;;;;;;;7.80;4.65;;;24.70;99.90;;;;;;6241987;23;20413;-67
2023/08/16 07:06:21;;;;;;;6.90;4.82;;;24.70;99.90;;;;;;6242870;23;20016;-68
2023/08/16 07:09:07;;;;;;;6.07;4.47;;;24.70;99.90;;;;;;6244130;23;20012;-67
2023/08/16 07:11:53;;;;;;;11.10;5.25;;;24.80;99.90;;;;;;6223061;23;20015;-68
2023/08/16 07:14:39;;;;;;;7.72;4.85;;;24.80;99.90;;;;;;6242727;23;20015;-68
2023/08/16 07:17:25;;;;;;;11.68;4.75;;;24.80;99.90;;;;;;6244096;23;20094;-66
2023/08/16 07:20:11;;;;;;;6.63;4.65;;;24.80;99.90;;;;;;6242800;23;20004;-67
2023/08/16 07:22:58;;;;;;;6.10;4.75;;;24.90;99.90;;;;;;6242989;23;20016;-66
2023/08/16 07:25:45;;;;;;;9.23;4.63;;;24.80;99.90;;;;;;6242805;23;20008;-67
2023/08/16 07:28:30;;;;;;;6.40;4.03;;;24.80;99.90;;;;;;6240047;23;20023;-66
2023/08/16 07:31:16;;;;;;;9.38;5.13;;;24.90;99.90;;;;;;6240850;23;20042;-67
2023/08/16 07:34:02;;;;;;;6.82;4.50;;;24.90;99.90;;;;;;6242988;23;20012;-66
2023/08/16 07:36:48;;;;;;;7.22;4.50;;;24.80;99.90;;;;;;6239327;23;20012;-66
2023/08/16 07:39:34;;;;;;;6.28;4.40;;;24.80;99.90;;;;;;6242396;23;20022;-66
2023/08/16 07:42:21;;;;;;;7.47;4.70;;;24.80;99.90;;;;;;6241917;23;20015;-66
2023/08/16 07:45:07;;;;;;;11.32;4.63;;;24.80;99.90;;;;;;6240308;23;20123;-69
2023/08/16 07:47:53;;;;;;;5.88;4.00;;;24.80;99.90;;;;;;6243615;23;20509;-67
2023/08/16 07:50:43;;;;;;;6.32;4.80;;;24.80;99.90;;;;;;6220986;23;20019;-67
2023/08/16 07:53:29;;;;;;;7.07;4.38;;;24.80;99.90;;;;;;6241023;23;20019;-67
2023/08/16 07:56:15;;;;;;;7.18;4.00;;;24.90;99.90;;;;;;6243015;23;20016;-67
2023/08/16 07:59:01;;;;;;;7.78;4.22;;;24.90;99.90;;;;;;6239945;23;20067;-67
2023/08/16 08:01:47;;;;;;;4.97;3.50;;;25.00;99.90;;;;;;6240973;23;20390;-66
2023/08/16 08:04:35;;;;;;;8.43;4.00;;;25.10;99.90;;;;;;6241103;23;20023;-66
2023/08/16 08:07:22;;;;;;;5.30;3.35;;;25.10;99.90;;;;;;6240545;23;20012;-66
2023/08/16 08:10:09;;;;;;;4.90;3.42;;;25.30;99.90;;;;;;6238926;23;20007;-67
2023/08/16 08:12:55;;;;;;;9.13;3.92;;;25.30;99.90;;;;;;6242185;23;20473;-67
2023/08/16 08:15:41;;;;;;;6.68;3.67;;;25.40;99.90;;;;;;6241422;23;20091;-67
2023/08/16 08:18:27;;;;;;;5.97;3.65;;;25.50;99.90;;;;;;6239064;23;20062;-67
2023/08/16 08:21:13;;;;;;;4.75;3.85;;;25.60;99.90;;;;;;6241292;23;20446;-67
2023/08/16 08:23:59;;;;;;;5.15;3.60;;;25.70;99.90;;;;;;6240338;23;20050;-66
2023/08/16 08:26:46;;;;;;;6.07;4.05;;;25.80;99.90;;;;;;6242049;23;20007;-67
2023/08/16 08:29:32;;;;;;;5.88;3.90;;;25.80;99.90;;;;;;6225351;23;20008;-66
2023/08/16 08:32:18;;;;;;;6.05;3.15;;;25.90;99.90;;;;;;6246526;23;20008;-67
2023/08/16 08:35:05;;;;;;;6.90;4.05;;;26.10;99.90;;;;;;6219609;23;20020;-66
2023/08/16 08:37:51;;;;;;;7.53;3.65;;;26.20;99.90;;;;;;6240336;23;20342;-68
2023/08/16 08:40:37;;;;;;;4.32;3.33;;;26.30;99.90;;;;;;6241401;23;20015;-65
2023/08/16 08:43:28;;;;;;;4.13;2.88;;;26.40;99.90;;;;;;6241296;23;20026;-66
2023/08/16 08:46:15;;;;;;;5.93;3.58;;;26.50;99.50;;;;;;6238478;23;20012;-67
2023/08/16 08:49:02;;;;;;;8.10;4.00;;;26.50;99.80;;;;;;6240402;23;20066;-66
2023/08/16 08:51:49;;;;;;;6.53;3.45;;;26.60;99.80;;;;;;6239714;23;20086;-66
2023/08/16 08:54:35;;;;;;;6.25;3.72;;;26.70;99.40;;;;;;6238623;23;20023;-67
2023/08/16 08:57:22;;;;;;;5.35;3.80;;;26.70;99.20;;;;;;6240802;23;20015;-66
2023/08/16 09:00:14;;;;;;;5.70;3.40;;;26.80;98.80;;;;;;6238862;23;20519;-67
2023/08/16 09:03:06;;;;;;;4.88;2.83;;;26.80;98.80;;;;;;6238210;23;20095;-67
2023/08/16 09:05:53;;;;;;;4.53;3.00;;;26.90;98.70;;;;;;6239740;23;20024;-67
2023/08/16 09:08:41;;;;;;;4.18;2.75;;;27.00;98.50;;;;;;6239315;23;20413;-69
2023/08/16 09:11:28;;;;;;;4.68;2.80;;;27.00;98.10;;;;;;6239194;23;20012;-67
2023/08/16 09:14:14;;;;;;;5.38;3.25;;;27.10;97.90;;;;;;6240260;23;20019;-67
2023/08/16 09:17:00;;;;;;;5.25;3.05;;;27.10;98.00;;;;;;6241474;23;20008;-67
2023/08/16 09:19:48;;;;;;;3.55;2.38;;;27.20;97.80;;;;;;6240241;23;20008;-67
2023/08/16 09:22:35;;;;;;;3.72;2.47;;;27.20;97.40;;;;;;6241266;23;20023;-67
2023/08/16 09:25:23;;;;;;;5.88;2.50;;;27.10;97.30;;;;;;6238374;23;20012;-67
2023/08/16 09:28:13;;;;;;;3.65;3.00;;;27.10;97.40;;;;;;6239356;23;20438;-67
2023/08/16 09:31:05;;;;;;;5.57;3.25;;;27.10;97.20;;;;;;6219621;23;20114;-65
2023/08/16 09:33:54;;;;;;;4.55;2.72;;;27.10;97.30;;;;;;6238190;23;20004;-66
2023/08/16 09:36:46;;;;;;;14.43;2.92;;;27.20;97.30;;;;;;6239213;23;20012;-65
2023/08/16 09:39:31;;;;;;;4.30;2.75;;;27.20;97.30;;;;;;6218558;23;20190;-65
2023/08/16 09:42:18;;;;;;;3.53;2.60;;;27.10;97.10;;;;;;6240221;23;20449;-65
2023/08/16 09:45:04;;;;;;;6.70;3.17;;;27.10;97.10;;;;;;6238155;23;20012;-65
2023/08/16 09:47:51;;;;;;;3.67;2.80;;;27.00;96.90;;;;;;6240424;23;20142;-65
2023/08/16 09:50:37;;;;;;;5.05;3.42;;;26.90;97.10;;;;;;6240786;23;20015;-65
2023/08/16 09:53:23;;;;;;;5.32;2.85;;;26.90;97.00;;;;;;6239863;23;20475;-65
2023/08/16 09:56:09;;;;;;;5.10;2.63;;;26.80;97.20;;;;;;6240782;23;20450;-67
2023/08/16 09:58:56;;;;;;;5.15;3.05;;;26.80;97.10;;;;;;6238301;23;20012;-67
2023/08/16 10:01:42;;;;;;;3.45;2.70;;;26.70;97.10;;;;;;6238120;23;20405;-65
2023/08/16 10:04:29;;;;;;;6.13;2.95;;;26.70;97.20;;;;;;6237744;23;20361;-65
2023/08/16 10:07:16;;;;;;;3.75;2.72;;;26.70;97.30;;;;;;6239232;23;20019;-66
2023/08/16 10:10:02;;;;;;;3.03;2.55;;;26.70;97.00;;;;;;6236677;23;20446;-65
2023/08/16 10:12:50;;;;;;;3.30;2.55;;;26.60;97.10;;;;;;6239451;23;20012;-68
2023/08/16 10:15:38;;;;;;;3.13;2.55;;;26.60;97.00;;;;;;6219454;23;20449;-69
2023/08/16 10:18:26;;;;;;;2.78;2.05;;;26.60;97.00;;;;;;6237494;23;20051;-65
2023/08/16 10:21:16;;;;;;;4.72;2.60;;;26.60;96.50;;;;;;6217605;23;20012;-64
2023/08/16 10:24:04;;;;;;;5.80;2.47;;;26.50;96.40;;;;;;6237801;23;20102;-66
2023/08/16 10:26:51;;;;;;;3.08;2.08;;;26.50;96.20;;;;;;6240427;23;20487;-67
2023/08/16 10:29:40;;;;;;;3.75;2.00;;;26.50;95.90;;;;;;6239445;23;20095;-67
2023/08/16 10:32:27;;;;;;;3.38;2.08;;;26.50;96.00;;;;;;6240343;23;20062;-67
2023/08/16 10:35:14;;;;;;;4.72;2.97;;;26.40;95.80;;;;;;6237074;23;20008;-67
2023/08/16 10:38:00;;;;;;;3.00;2.58;;;26.50;96.10;;;;;;6238583;23;20055;-68
2023/08/16 10:40:58;;;;;;;5.05;3.08;;;26.50;96.20;;;;;;6237291;23;20118;-67
2023/08/16 10:43:50;;;;;;;3.67;2.50;;;26.60;96.30;;;;;;6237417;23;20107;-68
2023/08/16 10:46:36;;;;;;;4.78;2.85;;;26.70;96.20;;;;;;6237267;23;20012;-68
2023/08/16 10:49:22;;;;;;;4.93;2.58;;;26.80;95.80;;;;;;6239070;23;20008;-67
2023/08/16 10:52:08;;;;;;;7.68;2.45;;;26.80;95.90;;;;;;6239538;23;20012;-68
2023/08/16 10:54:55;;;;;;;4.07;2.50;;;26.90;96.20;;;;;;6240714;23;20066;-68
2023/08/16 10:57:50;;;;;;;2.75;2.30;;;26.90;96.00;;;;;;6238456;23;20043;-67
2023/08/16 11:00:39;;;;;;;3.17;2.50;;;27.00;95.90;;;;;;6240145;23;20512;-66
2023/08/16 11:03:32;;;;;;;5.35;2.85;;;27.10;95.70;;;;;;6238115;23;20035;-67
2023/08/16 11:06:20;;;;;;;4.97;2.58;;;27.10;95.50;;;;;;6241579;23;20008;-66
2023/08/16 11:09:07;;;;;;;4.20;2.38;;;27.20;95.60;;;;;;6239364;23;20266;-68
2023/08/16 11:11:53;;;;;;;4.50;2.17;;;27.20;95.40;;;;;;6241796;23;20012;-67
2023/08/16 11:14:38;;;;;;;4.03;2.72;;;27.20;95.10;;;;;;6240587;23;20012;-67
2023/08/16 11:17:28;;;;;;;4.60;2.75;;;27.30;95.10;;;;;;6241371;23;20087;-67
2023/08/16 11:20:15;;;;;;;5.20;3.45;;;27.40;95.50;;;;;;6238905;23;20020;-67
2023/08/16 11:23:01;;;;;;;5.13;2.75;;;27.50;95.30;;;;;;6238711;23;20016;-67
2023/08/16 11:25:47;;;;;;;5.10;2.97;;;27.70;95.40;;;;;;6240068;23;20090;-67
2023/08/16 11:28:34;;;;;;;4.30;3.05;;;27.70;94.90;;;;;;6239570;23;20323;-67
2023/08/16 11:31:25;;;;;;;4.22;2.95;;;27.80;95.10;;;;;;6240085;23;20004;-67
2023/08/16 11:34:11;;;;;;;4.53;2.55;;;27.80;94.90;;;;;;6241825;23;20047;-68
2023/08/16 11:36:57;;;;;;;5.47;2.40;;;27.80;94.70;;;;;;6240763;23;20016;-68
2023/08/16 11:39:43;;;;;;;8.73;2.90;;;27.80;94.70;;;;;;6241191;23;20012;-69
2023/08/16 11:42:29;;;;;;;5.55;2.42;;;27.80;94.30;;;;;;6241320;23;20074;-70
2023/08/16 11:45:26;;;;;;;3.88;2.55;;;27.80;93.80;;;;;;6240022;23;20446;-70
2023/08/16 11:48:16;;;;;;;3.45;2.22;;;27.80;93.80;;;;;;6241992;23;20015;-70
2023/08/16 11:51:03;;;;;;;4.25;2.55;;;27.90;93.90;;;;;;6238045;23;20012;-70
2023/08/16 11:53:50;;;;;;;4.10;2.80;;;27.90;94.10;;;;;;6240429;23;20020;-70
2023/08/16 11:56:36;;;;;;;3.67;2.55;;;27.90;94.00;;;;;;6240824;23;20015;-71
2023/08/16 11:59:29;;;;;;;5.18;2.17;;;27.90;94.10;;;;;;6240476;23;20018;-70
2023/08/16 12:02:17;;;;;;;4.85;2.00;;;28.00;93.70;;;;;;6240481;23;20466;-70
2023/08/16 12:05:10;;;;;;;4.75;2.90;;;28.00;94.00;;;;;;6239417;23;20043;-72
2023/08/16 12:07:56;;;;;;;4.50;2.83;;;28.10;94.20;;;;;;6240183;23;20358;-71
2023/08/16 12:10:54;;;;;;;4.93;2.92;;;28.20;94.20;;;;;;6241847;23;20098;-71
2023/08/16 12:13:39;;;;;;;4.30;2.63;;;28.30;94.10;;;;;;6239824;23;20815;-69
2023/08/16 12:16:26;;;;;;;4.85;2.63;;;28.40;93.90;;;;;;6242153;23;20017;-66
2023/08/16 12:19:19;;;;;;;6.30;2.80;;;28.60;94.10;;;;;;6239638;23;20046;-69
2023/08/16 12:22:05;;;;;;;4.35;2.72;;;28.70;94.10;;;;;;6239588;23;20019;-69
2023/08/16 12:24:51;;;;;;;3.47;2.47;;;28.80;93.20;;;;;;6241280;23;20091;-68
2023/08/16 12:27:38;;;;;;;3.55;2.20;;;28.90;93.10;;;;;;6240904;23;20016;-68
2023/08/16 12:30:25;;;;;;;6.05;2.03;;;29.00;92.40;;;;;;6240661;23;20004;-71
2023/08/16 12:33:12;;;;;;;3.40;2.35;;;29.10;92.60;;;;;;6240944;23;20027;-71
2023/08/16 12:35:58;;;;;;;5.60;2.20;;;29.20;92.20;;;;;;6240333;23;20098;-71
2023/08/16 12:38:44;;;;;;;3.38;2.20;;;29.40;92.30;;;;;;6238382;23;20012;-71
2023/08/16 12:41:30;;;;;;;3.58;2.67;;;29.40;92.30;;;;;;6240384;23;20013;-71
2023/08/16 12:44:15;;;;;;;2.70;2.20;;;29.40;91.70;;;;;;6241050;23;20358;-71
2023/08/16 12:47:01;;;;;;;3.70;2.10;;;29.40;91.80;;;;;;6240645;23;20004;-70
2023/08/16 12:49:47;;;;;;;4.55;2.33;;;29.30;91.50;;;;;;6240617;23;20724;-70
2023/08/16 12:52:33;;;;;;;3.78;2.28;;;29.20;91.40;;;;;;6239868;23;20008;-71
2023/08/16 12:55:19;;;;;;;5.65;2.58;;;29.10;91.00;;;;;;6237449;23;20016;-70
2023/08/16 12:58:05;;;;;;;4.25;2.45;;;29.00;90.80;;;;;;6216447;23;20016;-71
2023/08/16 13:00:51;;;;;;;3.17;2.28;;;29.00;91.10;;;;;;6241471;23;20015;-71
2023/08/16 13:03:37;;;;;;;4.00;2.30;;;29.00;91.00;;;;;;6239979;23;20031;-71
2023/08/16 13:06:23;;;;;;;2.67;2.10;;;28.90;90.90;;;;;;6241474;23;20019;-71
2023/08/16 13:09:09;;;;;;;3.63;2.10;;;28.90;91.00;;;;;;6238488;23;20516;-71
2023/08/16 13:11:55;;;;;;;3.40;2.20;;;28.80;91.20;;;;;;6241685;23;20023;-71
2023/08/16 13:14:41;;;;;;;3.35;2.08;;;28.80;91.30;;;;;;6240644;23;20094;-71
2023/08/16 13:17:27;;;;;;;3.10;2.40;;;28.90;91.40;;;;;;6240120;23;20015;-71
2023/08/16 13:20:14;;;;;;;4.28;2.40;;;29.00;91.40;;;;;;6237833;23;20012;-71
2023/08/16 13:23:00;;;;;;;4.43;2.75;;;29.00;91.20;;;;;;6239127;23;20020;-65
2023/08/16 13:25:46;;;;;;;4.72;2.55;;;29.10;91.00;;;;;;6241210;23;20566;-70
2023/08/16 13:28:32;;;;;;;4.30;2.30;;;29.20;90.80;;;;;;6240785;23;20012;-71
2023/08/16 13:31:19;;;;;;;2.58;1.77;;;29.30;90.80;;;;;;6241238;23;20077;-71
2023/08/16 13:34:05;;;;;;;3.30;2.30;;;29.40;90.70;;;;;;6237940;23;20019;-67
2023/08/16 13:36:51;;;;;;;3.10;2.10;;;29.50;90.90;;;;;;6240037;23;20008;-67
2023/08/16 13:39:36;;;;;;;3.63;2.13;;;29.70;90.60;;;;;;6241753;23;20012;-67
2023/08/16 13:42:22;;;;;;;4.00;2.50;;;29.70;90.10;;;;;;6241179;23;20008;-66
2023/08/16 13:45:09;;;;;;;3.72;2.45;;;29.80;90.00;;;;;;6218934;23;20012;-67
2023/08/16 13:47:58;;;;;;;3.85;2.38;;;29.90;89.40;;;;;;6239156;23;20008;-66
2023/08/16 13:50:45;;;;;;;4.13;2.50;;;29.90;89.00;;;;;;6240058;23;20227;-67
2023/08/16 13:53:31;;;;;;;4.25;2.03;;;29.90;89.40;;;;;;6240821;23;20098;-66
2023/08/16 13:56:17;;;;;;;5.15;2.63;;;29.80;87.70;;;;;;6241803;23;20342;-67
2023/08/16 13:59:04;;;;;;;4.22;2.35;;;29.70;87.00;;;;;;6240237;23;20458;-67
2023/08/16 14:01:50;;;;;;;4.03;2.20;;;29.60;87.00;;;;;;6239591;23;20012;-67
2023/08/16 14:04:36;;;;;;;3.38;2.00;;;29.60;87.50;;;;;;6239602;23;20063;-68
2023/08/16 14:07:22;;;;;;;3.63;2.33;;;29.60;87.80;;;;;;6241524;23;20326;-68
2023/08/16 14:10:09;;;;;;;8.93;2.90;;;29.70;87.40;;;;;;6218316;23;20070;-67
2023/08/16 14:12:55;;;;;;;5.20;2.55;;;29.70;86.70;;;;;;6239084;23;20020;-67
2023/08/16 14:15:41;;;;;;;4.25;2.45;;;29.80;87.70;;;;;;6240683;23;20012;-68
2023/08/16 14:18:27;;;;;;;4.35;2.67;;;29.90;86.80;;;;;;6239456;23;20012;-67
2023/08/16 14:21:13;;;;;;;5.43;2.10;;;29.90;86.70;;;;;;6242319;23;20062;-67
2023/08/16 14:23:59;;;;;;;3.50;2.42;;;29.70;86.80;;;;;;6239859;23;20101;-67
2023/08/16 14:26:45;;;;;;;3.35;1.90;;;29.60;87.60;;;;;;6240713;23;20012;-68